Time;durP1;ratioP1;P1;durP2;ratioP2;P2;SDS_P1;SDS_P2;PMS_P1;PMS_P2;Temp;Humidity;BMP_temperature;BMP_pressure;BME280_temperature;BME280_humidity;BME280_pressure;Samples;Min_cycle;Max_cycle;Signal;HPM_P1;HPM_P2
2021/01/28 00:02:00;;;;;;;8.05;2.13;;;;;;;;;;5012724;28;20405;-61
2021/01/28 00:04:28;;;;;;;8.35;2.60;;;;;;;;;;5010905;28;20041;-61
2021/01/28 00:06:59;;;;;;;6.03;3.03;;;;;;;;;;4995953;28;20037;-60
2021/01/28 00:09:26;;;;;;;6.38;2.63;;;;;;;;;;4990718;28;20087;-60
2021/01/28 00:11:52;;;;;;;6.63;2.90;;;;;;;;;;5007124;28;20480;-61
2021/01/28 00:14:17;;;;;;;13.00;3.13;;;;;;;;;;5009548;28;20045;-61
2021/01/28 00:16:43;;;;;;;11.15;3.25;;;;;;;;;;5008227;28;20033;-60
2021/01/28 00:19:08;;;;;;;6.43;2.47;;;;;;;;;;4995463;28;20056;-60
2021/01/28 00:21:34;;;;;;;5.38;2.20;;;;;;;;;;5010749;28;20033;-60
2021/01/28 00:24:02;;;;;;;14.25;2.83;;;;;;;;;;5011223;28;20593;-60
2021/01/28 00:26:29;;;;;;;4.53;2.70;;;;;;;;;;5012351;28;20029;-60
2021/01/28 00:28:56;;;;;;;5.93;2.05;;;;;;;;;;4993837;28;20504;-60
2021/01/28 00:31:21;;;;;;;7.57;2.83;;;;;;;;;;5010386;28;20036;-60
2021/01/28 00:33:52;;;;;;;13.35;2.88;;;;;;;;;;5011157;28;20080;-60
2021/01/28 00:36:18;;;;;;;10.20;2.75;;;;;;;;;;5022032;28;20222;-60
2021/01/28 00:38:48;;;;;;;5.40;2.75;;;;;;;;;;5028907;28;20065;-60
2021/01/28 00:41:16;;;;;;;6.47;2.28;;;;;;;;;;4998313;28;20029;-60
2021/01/28 00:43:44;;;;;;;10.95;2.35;;;;;;;;;;4996106;28;20046;-61
2021/01/28 00:46:09;;;;;;;9.80;2.22;;;;;;;;;;4997511;28;20099;-61
2021/01/28 00:48:34;;;;;;;11.32;2.72;;;;;;;;;;5005362;28;20041;-61
2021/01/28 00:51:03;;;;;;;3.85;2.55;;;;;;;;;;5015738;28;20140;-61
2021/01/28 00:53:33;;;;;;;8.57;2.88;;;;;;;;;;4993982;28;20091;-61
2021/01/28 00:56:02;;;;;;;7.25;2.40;;;;;;;;;;4996886;28;20416;-61
2021/01/28 00:58:30;;;;;;;4.25;2.10;;;;;;;;;;5009176;28;21812;-61
2021/01/28 01:00:57;;;;;;;3.72;2.42;;;;;;;;;;4994201;28;20341;-62
2021/01/28 01:03:28;;;;;;;4.55;2.75;;;;;;;;;;4995121;28;20030;-59
2021/01/28 01:05:58;;;;;;;4.65;2.28;;;;;;;;;;4996193;28;20041;-60
2021/01/28 01:08:30;;;;;;;6.95;2.63;;;;;;;;;;5008364;28;20041;-60
2021/01/28 01:11:00;;;;;;;5.70;2.40;;;;;;;;;;4993439;28;20030;-60
2021/01/28 01:13:29;;;;;;;11.10;3.00;;;;;;;;;;4994267;28;20492;-59
2021/01/28 01:15:55;;;;;;;5.25;2.45;;;;;;;;;;4995204;28;20380;-60
2021/01/28 01:18:25;;;;;;;10.48;2.75;;;;;;;;;;4992702;28;20036;-59
2021/01/28 01:20:56;;;;;;;6.47;2.67;;;;;;;;;;4992132;28;20078;-60
2021/01/28 01:23:24;;;;;;;7.43;2.70;;;;;;;;;;4994591;28;20444;-60
2021/01/28 01:25:59;;;;;;;3.28;1.88;;;;;;;;;;4979779;28;20061;-61
2021/01/28 01:28:27;;;;;;;6.38;2.75;;;;;;;;;;5008415;28;20073;-61
2021/01/28 01:30:56;;;;;;;4.63;2.63;;;;;;;;;;4994203;28;21271;-61
2021/01/28 01:33:22;;;;;;;12.85;2.58;;;;;;;;;;4977808;28;20029;-61
2021/01/28 01:35:47;;;;;;;10.90;2.53;;;;;;;;;;5008568;28;20129;-61
2021/01/28 01:38:13;;;;;;;2.53;1.98;;;;;;;;;;4995128;28;20018;-61
2021/01/28 01:40:43;;;;;;;8.48;2.75;;;;;;;;;;4993543;28;20944;-60
2021/01/28 01:43:12;;;;;;;7.95;2.45;;;;;;;;;;4994915;28;20033;-62
2021/01/28 01:45:44;;;;;;;7.18;2.20;;;;;;;;;;4975736;28;20038;-61
2021/01/28 01:48:21;;;;;;;4.22;2.15;;;;;;;;;;4993572;28;20064;-60
2021/01/28 01:50:52;;;;;;;3.20;1.98;;;;;;;;;;5006805;28;20048;-60
2021/01/28 01:53:41;;;;;;;3.50;2.50;;;;;;;;;;4998772;28;20029;-60
2021/01/28 01:56:22;;;;;;;3.30;1.92;;;;;;;;;;5001624;28;20066;-59
2021/01/28 01:58:51;;;;;;;2.63;1.85;;;;;;;;;;5013758;28;20053;-60
2021/01/28 02:01:19;;;;;;;6.55;3.35;;;;;;;;;;4996145;28;20024;-61
2021/01/28 02:03:47;;;;;;;4.13;2.70;;;;;;;;;;4995568;28;20052;-61
2021/01/28 02:06:16;;;;;;;3.50;2.53;;;;;;;;;;5029842;28;20029;-61
2021/01/28 02:08:46;;;;;;;11.38;2.83;;;;;;;;;;5013522;28;20036;-61
2021/01/28 02:11:14;;;;;;;4.45;2.80;;;;;;;;;;5029831;28;20033;-61
2021/01/28 02:13:40;;;;;;;2.67;2.10;;;;;;;;;;5013672;28;20036;-60
2021/01/28 02:16:06;;;;;;;4.30;2.72;;;;;;;;;;5011339;28;20429;-61
2021/01/28 02:18:31;;;;;;;4.07;2.63;;;;;;;;;;5012435;28;20083;-61
2021/01/28 02:21:12;;;;;;;3.85;2.40;;;;;;;;;;5014008;28;20029;-61
2021/01/28 02:23:52;;;;;;;3.88;2.08;;;;;;;;;;5009849;28;20044;-59
2021/01/28 02:26:20;;;;;;;3.38;2.53;;;;;;;;;;5001704;28;20120;-60
2021/01/28 02:28:45;;;;;;;8.98;3.22;;;;;;;;;;4995876;28;20033;-60
2021/01/28 02:31:10;;;;;;;8.95;3.28;;;;;;;;;;5013057;28;20051;-60
2021/01/28 02:33:42;;;;;;;6.50;2.97;;;;;;;;;;5011802;28;20136;-60
2021/01/28 02:36:08;;;;;;;5.85;3.15;;;;;;;;;;5013086;28;20120;-60
2021/01/28 02:38:36;;;;;;;5.22;2.50;;;;;;;;;;5013586;28;20284;-60
2021/01/28 02:41:08;;;;;;;6.65;2.70;;;;;;;;;;5013110;28;20396;-60
2021/01/28 02:43:36;;;;;;;4.90;3.28;;;;;;;;;;5013266;28;20114;-60
2021/01/28 02:46:04;;;;;;;3.80;2.65;;;;;;;;;;5012803;28;20037;-61
2021/01/28 02:48:29;;;;;;;5.05;3.00;;;;;;;;;;5009694;28;22284;-61
2021/01/28 02:50:55;;;;;;;7.72;2.53;;;;;;;;;;5011014;28;20049;-61
2021/01/28 02:53:23;;;;;;;4.13;2.25;;;;;;;;;;5029536;28;20061;-63
2021/01/28 02:55:53;;;;;;;8.10;3.13;;;;;;;;;;4995289;28;20068;-61
2021/01/28 02:58:18;;;;;;;4.32;2.42;;;;;;;;;;5026991;28;20083;-60
2021/01/28 03:00:48;;;;;;;9.02;3.17;;;;;;;;;;5002191;28;20043;-60
2021/01/28 03:03:14;;;;;;;7.47;3.67;;;;;;;;;;5011737;28;20045;-60
2021/01/28 03:05:52;;;;;;;6.22;3.70;;;;;;;;;;5027962;28;21679;-61
2021/01/28 03:08:20;;;;;;;15.02;4.00;;;;;;;;;;5011663;28;20057;-60
2021/01/28 03:10:48;;;;;;;7.05;2.80;;;;;;;;;;4996480;28;20033;-60
2021/01/28 03:13:16;;;;;;;4.72;2.88;;;;;;;;;;5012935;28;20528;-60
2021/01/28 03:15:44;;;;;;;4.82;2.65;;;;;;;;;;5012695;28;20590;-60
2021/01/28 03:18:12;;;;;;;6.18;2.40;;;;;;;;;;5013671;28;20025;-60
2021/01/28 03:20:38;;;;;;;3.97;2.38;;;;;;;;;;5026579;28;20045;-60
2021/01/28 03:23:06;;;;;;;2.45;2.03;;;;;;;;;;5013437;28;20037;-59
2021/01/28 03:25:34;;;;;;;4.00;2.30;;;;;;;;;;4989901;28;20495;-61
2021/01/28 03:28:02;;;;;;;3.28;2.03;;;;;;;;;;5026752;28;20033;-60
2021/01/28 03:30:40;;;;;;;5.18;2.60;;;;;;;;;;5009409;28;20041;-60
2021/01/28 03:33:07;;;;;;;5.30;2.47;;;;;;;;;;5012298;28;20120;-60
2021/01/28 03:35:32;;;;;;;4.78;2.63;;;;;;;;;;5013148;28;20031;-60
2021/01/28 03:38:01;;;;;;;4.78;3.00;;;;;;;;;;5013781;28;20095;-60
2021/01/28 03:40:32;;;;;;;4.88;2.85;;;;;;;;;;5011670;28;20033;-60
2021/01/28 03:42:58;;;;;;;8.38;3.47;;;;;;;;;;5012586;28;20970;-59
2021/01/28 03:45:23;;;;;;;5.63;3.22;;;;;;;;;;5011578;28;20060;-60
2021/01/28 03:47:52;;;;;;;5.82;2.55;;;;;;;;;;5010407;28;20479;-60
2021/01/28 03:50:21;;;;;;;8.35;3.92;;;;;;;;;;5000075;28;20370;-60
2021/01/28 03:52:52;;;;;;;6.30;3.25;;;;;;;;;;4991582;28;20516;-60
2021/01/28 03:55:19;;;;;;;3.33;2.50;;;;;;;;;;4993380;28;20479;-60
2021/01/28 03:57:48;;;;;;;5.90;3.03;;;;;;;;;;5007151;28;20103;-60
2021/01/28 04:00:14;;;;;;;4.43;2.97;;;;;;;;;;4971508;28;20026;-60
2021/01/28 04:02:42;;;;;;;7.00;3.00;;;;;;;;;;4991502;28;20163;-60
2021/01/28 04:05:09;;;;;;;4.88;2.85;;;;;;;;;;5006174;28;20041;-60
2021/01/28 04:07:35;;;;;;;8.02;3.00;;;;;;;;;;4991079;28;20692;-60
2021/01/28 04:10:05;;;;;;;15.07;3.78;;;;;;;;;;4992666;28;20033;-60
2021/01/28 04:12:34;;;;;;;7.03;3.15;;;;;;;;;;4991201;28;20028;-60
2021/01/28 04:15:03;;;;;;;5.25;3.05;;;;;;;;;;4992080;28;20441;-60
2021/01/28 04:17:31;;;;;;;5.57;2.90;;;;;;;;;;4992172;28;21218;-60
2021/01/28 04:19:59;;;;;;;5.88;2.58;;;;;;;;;;4989640;28;20466;-60
2021/01/28 04:22:30;;;;;;;7.35;3.38;;;;;;;;;;5005595;28;20041;-62
2021/01/28 04:24:55;;;;;;;5.07;2.80;;;;;;;;;;4993433;28;20034;-60
2021/01/28 04:27:20;;;;;;;3.15;2.33;;;;;;;;;;4993677;28;20092;-60
2021/01/28 04:29:48;;;;;;;5.72;2.47;;;;;;;;;;5004605;28;20121;-60
2021/01/28 04:32:13;;;;;;;4.60;2.92;;;;;;;;;;4999173;28;20026;-60
2021/01/28 04:34:39;;;;;;;7.35;3.60;;;;;;;;;;4991612;28;20037;-61
2021/01/28 04:37:05;;;;;;;6.20;3.05;;;;;;;;;;5005082;28;20044;-61
2021/01/28 04:39:31;;;;;;;4.95;3.20;;;;;;;;;;4990901;28;20166;-60
2021/01/28 04:41:59;;;;;;;4.85;2.70;;;;;;;;;;5005609;28;20038;-61
2021/01/28 04:44:27;;;;;;;6.88;3.38;;;;;;;;;;5001982;28;20627;-60
2021/01/28 04:46:57;;;;;;;6.85;2.97;;;;;;;;;;4989729;28;20034;-60
2021/01/28 04:49:26;;;;;;;7.40;2.92;;;;;;;;;;4994719;28;20396;-60
2021/01/28 04:51:58;;;;;;;9.48;2.92;;;;;;;;;;4991387;28;20037;-60
2021/01/28 04:54:25;;;;;;;7.50;3.47;;;;;;;;;;5010981;28;20164;-60
2021/01/28 04:56:50;;;;;;;7.40;3.88;;;;;;;;;;5010083;28;20025;-61
2021/01/28 04:59:16;;;;;;;3.85;2.75;;;;;;;;;;4993613;28;20073;-61
2021/01/28 05:01:44;;;;;;;7.35;3.60;;;;;;;;;;5026360;28;20029;-62
2021/01/28 05:04:15;;;;;;;6.55;3.42;;;;;;;;;;5011734;28;20046;-61
2021/01/28 05:06:41;;;;;;;6.22;3.70;;;;;;;;;;5011700;28;20473;-60
2021/01/28 05:09:07;;;;;;;7.70;3.63;;;;;;;;;;5011891;28;20251;-62
2021/01/28 05:11:33;;;;;;;9.80;3.47;;;;;;;;;;4988986;28;20029;-61
2021/01/28 05:14:18;;;;;;;6.70;3.67;;;;;;;;;;5010226;28;20026;-61
2021/01/28 05:16:48;;;;;;;8.23;3.80;;;;;;;;;;5011039;28;20247;-61
2021/01/28 05:19:34;;;;;;;8.23;3.80;;;;;;;;;;5024066;28;20213;-62
2021/01/28 05:22:05;;;;;;;6.63;3.85;;;;;;;;;;5010044;28;20034;-62
2021/01/28 05:24:51;;;;;;;7.38;3.60;;;;;;;;;;5011831;28;20148;-61
2021/01/28 05:27:16;;;;;;;7.13;3.80;;;;;;;;;;5014096;28;20525;-61
2021/01/28 05:29:42;;;;;;;5.90;3.53;;;;;;;;;;5029319;28;20127;-60
2021/01/28 05:32:34;;;;;;;6.53;3.55;;;;;;;;;;4999426;28;20407;-60
2021/01/28 05:35:12;;;;;;;8.45;3.67;;;;;;;;;;4993741;28;20499;-61
2021/01/28 05:37:37;;;;;;;7.10;3.42;;;;;;;;;;5011767;28;20025;-61
2021/01/28 05:40:18;;;;;;;7.72;4.05;;;;;;;;;;5014402;28;20374;-60
2021/01/28 05:42:51;;;;;;;7.18;3.95;;;;;;;;;;5014716;28;20041;-61
2021/01/28 05:45:24;;;;;;;7.57;4.22;;;;;;;;;;5014021;28;20025;-62
2021/01/28 05:47:51;;;;;;;7.43;4.07;;;;;;;;;;4997105;28;20165;-62
2021/01/28 05:50:29;;;;;;;8.25;4.38;;;;;;;;;;5013912;28;20560;-62
2021/01/28 05:53:14;;;;;;;6.82;4.13;;;;;;;;;;5011265;28;20053;-62
2021/01/28 05:55:40;;;;;;;;;;;;;;;;;;5010804;28;20259;-60
2021/01/28 05:58:12;;;;;;;8.00;4.90;;;;;;;;;;5010662;28;20007;-62
2021/01/28 06:00:45;;;;;;;8.85;5.25;;;;;;;;;;5011399;28;20369;-61
2021/01/28 06:03:28;;;;;;;8.85;5.25;;;;;;;;;;4995616;28;20109;-62
2021/01/28 06:06:15;;;;;;;9.82;5.10;;;;;;;;;;5029275;28;20127;-61
2021/01/28 06:08:59;;;;;;;11.82;5.10;;;;;;;;;;5014264;28;20044;-62
2021/01/28 06:11:27;;;;;;;11.40;4.28;;;;;;;;;;5013499;28;20539;-61
2021/01/28 06:14:08;;;;;;;57.13;15.75;;;;;;;;;;5014824;28;21470;-61
2021/01/28 06:16:37;;;;;;;13.57;6.63;;;;;;;;;;5019266;28;20119;-61
2021/01/28 06:19:21;;;;;;;6.43;3.65;;;;;;;;;;4999800;28;20643;-60
2021/01/28 06:21:58;;;;;;;6.20;3.40;;;;;;;;;;5014333;28;20633;-61
2021/01/28 06:24:42;;;;;;;7.00;3.55;;;;;;;;;;5013672;28;20215;-61
2021/01/28 06:27:32;;;;;;;6.50;3.23;;;;;;;;;;5029402;28;20037;-61
2021/01/28 06:30:08;;;;;;;6.68;3.50;;;;;;;;;;5013032;28;20071;-60
2021/01/28 06:32:54;;;;;;;8.48;3.33;;;;;;;;;;5000526;28;20021;-60
2021/01/28 06:35:31;;;;;;;8.52;4.10;;;;;;;;;;5010896;28;20669;-60
2021/01/28 06:38:10;;;;;;;9.80;3.35;;;;;;;;;;5014636;28;20128;-60
2021/01/28 06:40:43;;;;;;;11.68;3.63;;;;;;;;;;5011871;28;20037;-60
2021/01/28 06:43:15;;;;;;;10.15;3.50;;;;;;;;;;5014680;28;20071;-62
2021/01/28 06:45:51;;;;;;;9.77;3.50;;;;;;;;;;5011200;28;20157;-60
2021/01/28 06:48:24;;;;;;;15.23;4.30;;;;;;;;;;5011722;28;20032;-62
2021/01/28 06:50:51;;;;;;;7.63;3.58;;;;;;;;;;5008685;28;20079;-60
2021/01/28 06:53:40;;;;;;;8.43;4.25;;;;;;;;;;5008335;28;20517;-61
2021/01/28 06:56:09;;;;;;;6.93;3.70;;;;;;;;;;4990389;28;20069;-60
2021/01/28 06:58:49;;;;;;;6.22;3.30;;;;;;;;;;5004055;28;20029;-60
2021/01/28 07:01:36;;;;;;;5.68;3.40;;;;;;;;;;5013073;28;20038;-60
2021/01/28 07:04:04;;;;;;;9.02;3.25;;;;;;;;;;5010821;28;20124;-60
2021/01/28 07:06:53;;;;;;;8.20;3.58;;;;;;;;;;5002452;28;20622;-59
2021/01/28 07:09:32;;;;;;;11.10;4.20;;;;;;;;;;5026091;28;20040;-60
2021/01/28 07:12:02;;;;;;;6.22;3.00;;;;;;;;;;5012127;28;20029;-60
2021/01/28 07:14:30;;;;;;;8.40;3.28;;;;;;;;;;5006012;28;20718;-60
2021/01/28 07:17:13;;;;;;;7.10;4.00;;;;;;;;;;5006329;28;20017;-61
2021/01/28 07:19:40;;;;;;;10.70;3.20;;;;;;;;;;4981512;28;20456;-61
2021/01/28 07:22:25;;;;;;;5.65;2.90;;;;;;;;;;5004228;28;20079;-61
2021/01/28 07:24:50;;;;;;;4.95;2.90;;;;;;;;;;5004244;28;20032;-59
2021/01/28 07:27:19;;;;;;;13.05;4.70;;;;;;;;;;5005360;28;20431;-62
2021/01/28 07:29:46;;;;;;;8.27;3.55;;;;;;;;;;5002041;28;20032;-61
2021/01/28 07:32:33;;;;;;;11.00;3.42;;;;;;;;;;5002284;28;20056;-62
2021/01/28 07:35:35;;;;;;;5.30;3.03;;;;;;;;;;4983944;28;20485;-61
2021/01/28 07:38:26;;;;;;;7.93;2.97;;;;;;;;;;4967152;28;20148;-61
2021/01/28 07:40:54;;;;;;;4.65;2.83;;;;;;;;;;4996986;28;20226;-62
2021/01/28 07:43:24;;;;;;;12.35;3.75;;;;;;;;;;5018200;28;20040;-62
2021/01/28 07:46:12;;;;;;;7.32;3.00;;;;;;;;;;5005994;28;20457;-60
2021/01/28 07:48:37;;;;;;;3.47;2.83;;;;;;;;;;4991146;28;20148;-62
2021/01/28 07:51:27;;;;;;;8.23;2.70;;;;;;;;;;5017771;28;20684;-62
2021/01/28 07:53:55;;;;;;;14.27;2.75;;;;;;;;;;5000008;28;20039;-61
2021/01/28 07:56:35;;;;;;;5.38;2.95;;;;;;;;;;5006114;28;20449;-61
2021/01/28 07:59:22;;;;;;;5.68;3.05;;;;;;;;;;5017110;28;20037;-60
2021/01/28 08:01:51;;;;;;;8.63;3.23;;;;;;;;;;5003321;28;20409;-59
2021/01/28 08:04:27;;;;;;;9.40;3.55;;;;;;;;;;4998796;28;20276;-61
2021/01/28 08:06:54;;;;;;;8.40;2.80;;;;;;;;;;5003918;28;20028;-61
2021/01/28 08:09:19;;;;;;;6.10;2.92;;;;;;;;;;4987490;28;20190;-61
2021/01/28 08:11:56;;;;;;;8.93;3.17;;;;;;;;;;4987012;28;20045;-62
2021/01/28 08:14:23;;;;;;;6.85;3.08;;;;;;;;;;4999074;28;20781;-61
2021/01/28 08:16:50;;;;;;;7.30;2.55;;;;;;;;;;5004098;28;20443;-62
2021/01/28 08:19:21;;;;;;;5.57;2.47;;;;;;;;;;5000652;28;20053;-62
2021/01/28 08:22:01;;;;;;;8.25;3.08;;;;;;;;;;5002190;28;20127;-61
2021/01/28 08:24:36;;;;;;;9.82;3.00;;;;;;;;;;4999188;28;20177;-61
2021/01/28 08:27:10;;;;;;;5.00;2.45;;;;;;;;;;5016707;28;20124;-61
2021/01/28 08:29:36;;;;;;;6.15;3.17;;;;;;;;;;5002261;28;21977;-61
2021/01/28 08:32:02;;;;;;;11.13;3.30;;;;;;;;;;4987718;28;20025;-61
2021/01/28 08:34:29;;;;;;;14.18;3.25;;;;;;;;;;5001361;28;21042;-60
2021/01/28 08:36:57;;;;;;;8.95;3.53;;;;;;;;;;5000815;28;20033;-60
2021/01/28 08:39:26;;;;;;;8.68;3.72;;;;;;;;;;4980247;28;20038;-60
2021/01/28 08:42:09;;;;;;;13.13;3.97;;;;;;;;;;4984523;28;20017;-62
2021/01/28 08:44:35;;;;;;;6.53;3.15;;;;;;;;;;4999897;28;20040;-61
2021/01/28 08:47:04;;;;;;;11.35;3.65;;;;;;;;;;5001253;28;21596;-59
2021/01/28 08:49:32;;;;;;;7.65;4.07;;;;;;;;;;5005394;28;20412;-62
2021/01/28 08:52:05;;;;;;;12.45;4.32;;;;;;;;;;5009581;28;20111;-61
2021/01/28 08:54:38;;;;;;;7.97;3.78;;;;;;;;;;4988660;28;20037;-61
2021/01/28 08:57:06;;;;;;;8.10;3.63;;;;;;;;;;5007402;28;20116;-62
2021/01/28 08:59:47;;;;;;;9.88;4.07;;;;;;;;;;4990216;28;20022;-63
2021/01/28 09:02:24;;;;;;;10.38;4.72;;;;;;;;;;5003254;28;20049;-61
2021/01/28 09:05:02;;;;;;;8.30;4.68;;;;;;;;;;5008135;28;21747;-62
2021/01/28 09:07:48;;;;;;;6.60;4.55;;;;;;;;;;5012606;28;20465;-62
2021/01/28 09:10:22;;;;;;;15.32;4.47;;;;;;;;;;5030541;28;20091;-64
2021/01/28 09:12:48;;;;;;;9.98;4.07;;;;;;;;;;5015830;28;20033;-63
2021/01/28 09:15:17;;;;;;;11.50;4.90;;;;;;;;;;5016239;28;20033;-62
2021/01/28 09:17:45;;;;;;;12.48;5.10;;;;;;;;;;5016816;28;20082;-62
2021/01/28 09:20:22;;;;;;;7.25;4.10;;;;;;;;;;4993912;28;20033;-63
2021/01/28 09:22:48;;;;;;;8.82;3.92;;;;;;;;;;4984412;28;20056;-62
2021/01/28 09:25:19;;;;;;;12.40;4.57;;;;;;;;;;5003360;28;20025;-62
2021/01/28 09:27:58;;;;;;;11.07;4.10;;;;;;;;;;5003171;28;20044;-61
2021/01/28 09:30:29;;;;;;;7.85;3.63;;;;;;;;;;5008164;28;20085;-61
2021/01/28 09:32:54;;;;;;;6.93;3.50;;;;;;;;;;4993477;28;20046;-60
2021/01/28 09:35:20;;;;;;;8.23;3.25;;;;;;;;;;5011434;28;20273;-63
2021/01/28 09:38:04;;;;;;;8.32;3.42;;;;;;;;;;4984711;28;21793;-63
2021/01/28 09:40:32;;;;;;;10.98;3.55;;;;;;;;;;5003045;28;20043;-62
2021/01/28 09:43:17;;;;;;;7.93;3.28;;;;;;;;;;5000310;28;20056;-61
2021/01/28 09:46:00;;;;;;;8.95;3.10;;;;;;;;;;4991554;28;20036;-62
2021/01/28 09:48:25;;;;;;;6.97;2.97;;;;;;;;;;5009751;28;20037;-62
2021/01/28 09:50:53;;;;;;;15.90;3.35;;;;;;;;;;4976163;28;20409;-62
2021/01/28 09:53:19;;;;;;;8.98;3.13;;;;;;;;;;5018782;28;20274;-62
2021/01/28 09:55:49;;;;;;;8.50;2.80;;;;;;;;;;5017389;28;20184;-61
2021/01/28 09:58:15;;;;;;;6.35;3.17;;;;;;;;;;5023289;28;20047;-62
2021/01/28 10:00:40;;;;;;;7.30;2.83;;;;;;;;;;5027538;28;20041;-62
2021/01/28 10:03:06;;;;;;;10.25;2.42;;;;;;;;;;5010010;28;20049;-63
2021/01/28 10:05:33;;;;;;;7.50;2.67;;;;;;;;;;5015356;28;20036;-65
2021/01/28 10:08:03;;;;;;;3.90;2.30;;;;;;;;;;5012839;28;21670;-62
2021/01/28 10:10:32;;;;;;;5.82;2.17;;;;;;;;;;4985226;28;20044;-65
2021/01/28 10:13:01;;;;;;;6.30;2.65;;;;;;;;;;5008708;28;20511;-63
2021/01/28 10:15:27;;;;;;;3.97;2.17;;;;;;;;;;5008075;28;20110;-64
2021/01/28 10:17:53;;;;;;;7.05;2.10;;;;;;;;;;4981396;28;20021;-62
2021/01/28 10:20:23;;;;;;;7.20;2.65;;;;;;;;;;5003157;28;20112;-64
2021/01/28 10:22:54;;;;;;;6.13;2.20;;;;;;;;;;5003827;28;20139;-63
2021/01/28 10:25:23;;;;;;;6.18;3.08;;;;;;;;;;5014444;28;20040;-64
2021/01/28 10:27:48;;;;;;;6.10;2.47;;;;;;;;;;5013857;28;20665;-61
2021/01/28 10:30:16;;;;;;;12.15;2.50;;;;;;;;;;5012792;28;20068;-63
2021/01/28 10:32:43;;;;;;;5.47;3.35;;;;;;;;;;5013083;28;20025;-64
2021/01/28 10:35:11;;;;;;;7.70;2.92;;;;;;;;;;5025161;28;20083;-64
2021/01/28 10:37:39;;;;;;;7.90;2.90;;;;;;;;;;5013522;28;20021;-63
2021/01/28 10:40:05;;;;;;;8.35;2.78;;;;;;;;;;5013212;28;20029;-64
2021/01/28 10:42:38;;;;;;;4.60;2.42;;;;;;;;;;5027855;28;21703;-63
2021/01/28 10:45:05;;;;;;;6.53;2.60;;;;;;;;;;5011737;28;20113;-64
2021/01/28 10:47:33;;;;;;;8.43;2.92;;;;;;;;;;5013286;28;20113;-64
2021/01/28 10:50:02;;;;;;;13.20;3.50;;;;;;;;;;5012483;28;20281;-63
2021/01/28 10:52:32;;;;;;;8.27;2.88;;;;;;;;;;5011263;28;20033;-66
2021/01/28 10:54:58;;;;;;;9.05;2.53;;;;;;;;;;5024113;28;20438;-65
2021/01/28 10:57:24;;;;;;;6.68;2.47;;;;;;;;;;5021991;28;20034;-64
2021/01/28 10:59:50;;;;;;;8.60;2.67;;;;;;;;;;5006306;28;20424;-65
2021/01/28 11:02:18;;;;;;;8.38;2.88;;;;;;;;;;5011470;28;20037;-63
2021/01/28 11:04:44;;;;;;;5.78;2.55;;;;;;;;;;5011616;28;20405;-67
2021/01/28 11:07:12;;;;;;;3.22;2.33;;;;;;;;;;5011674;28;20056;-63
2021/01/28 11:09:38;;;;;;;3.20;1.83;;;;;;;;;;5025147;28;20037;-64
2021/01/28 11:12:05;;;;;;;3.42;1.65;;;;;;;;;;5014754;28;20036;-65
2021/01/28 11:14:33;;;;;;;7.88;2.33;;;;;;;;;;5010395;28;20033;-64
2021/01/28 11:16:59;;;;;;;9.63;2.90;;;;;;;;;;4998188;28;20043;-64
2021/01/28 11:19:28;;;;;;;9.23;1.58;;;;;;;;;;4992048;28;20418;-64
2021/01/28 11:21:54;;;;;;;2.70;1.45;;;;;;;;;;5012638;28;20029;-64
2021/01/28 11:24:22;;;;;;;5.60;1.83;;;;;;;;;;4995707;28;20583;-63
2021/01/28 11:26:47;;;;;;;2.75;1.63;;;;;;;;;;4999297;28;20029;-63
2021/01/28 11:29:13;;;;;;;3.58;1.50;;;;;;;;;;5012171;28;20030;-64
2021/01/28 11:31:40;;;;;;;2.53;1.50;;;;;;;;;;4995487;28;20040;-65
2021/01/28 11:34:08;;;;;;;3.75;1.45;;;;;;;;;;5012948;28;20037;-65
2021/01/28 11:36:33;;;;;;;1.75;1.65;;;;;;;;;;5013341;28;20446;-65
2021/01/28 11:38:59;;;;;;;1.60;1.40;;;;;;;;;;5008965;28;20035;-64
2021/01/28 11:41:30;;;;;;;2.75;1.30;;;;;;;;;;5013815;28;20153;-67
2021/01/28 11:43:58;;;;;;;3.87;1.97;;;;;;;;;;5026285;28;20039;-65
2021/01/28 11:46:24;;;;;;;3.95;2.05;;;;;;;;;;5013024;28;20609;-65
2021/01/28 11:48:51;;;;;;;2.33;1.55;;;;;;;;;;5014650;28;20084;-66
2021/01/28 11:51:18;;;;;;;4.57;1.48;;;;;;;;;;4979772;28;20501;-64
2021/01/28 11:53:46;;;;;;;3.30;1.77;;;;;;;;;;4991147;28;21716;-65
2021/01/28 11:56:12;;;;;;;5.35;1.80;;;;;;;;;;4992981;28;20021;-65
2021/01/28 11:58:37;;;;;;;2.03;1.42;;;;;;;;;;5005324;28;20037;-67
2021/01/28 12:01:03;;;;;;;5.55;1.65;;;;;;;;;;4987119;28;20744;-65
2021/01/28 12:03:32;;;;;;;2.88;1.98;;;;;;;;;;5006388;28;20171;-66
2021/01/28 12:05:59;;;;;;;4.07;1.63;;;;;;;;;;4991206;28;20575;-65
2021/01/28 12:08:27;;;;;;;3.08;1.73;;;;;;;;;;4989950;28;20045;-64
2021/01/28 12:10:53;;;;;;;3.55;1.67;;;;;;;;;;5008817;28;21683;-65
2021/01/28 12:13:21;;;;;;;7.93;1.70;;;;;;;;;;4971673;28;20046;-65
2021/01/28 12:15:49;;;;;;;3.50;1.92;;;;;;;;;;4986684;28;20034;-65
2021/01/28 12:18:15;;;;;;;2.58;1.75;;;;;;;;;;4988936;28;20037;-65
2021/01/28 12:20:40;;;;;;;2.70;1.92;;;;;;;;;;4990044;28;20080;-65
2021/01/28 12:23:08;;;;;;;2.95;1.55;;;;;;;;;;4990470;28;20048;-65
2021/01/28 12:25:36;;;;;;;3.72;1.35;;;;;;;;;;4991010;28;20037;-66
2021/01/28 12:28:03;;;;;;;7.07;1.73;;;;;;;;;;5003710;28;20469;-64
2021/01/28 12:30:34;;;;;;;9.07;1.73;;;;;;;;;;5006700;28;20033;-65
2021/01/28 12:33:00;;;;;;;2.50;1.85;;;;;;;;;;5008130;28;20034;-66
2021/01/28 12:35:26;;;;;;;2.33;1.67;;;;;;;;;;4994716;28;20037;-65
2021/01/28 12:37:54;;;;;;;4.57;1.65;;;;;;;;;;4996120;28;20283;-66
2021/01/28 12:40:26;;;;;;;1.83;1.23;;;;;;;;;;4992967;28;20508;-67
2021/01/28 12:42:55;;;;;;;1.60;1.30;;;;;;;;;;4992158;28;20041;-68
2021/01/28 12:45:21;;;;;;;2.35;1.17;;;;;;;;;;4989535;28;20033;-70
2021/01/28 12:47:46;;;;;;;4.00;1.40;;;;;;;;;;4979753;28;20657;-67
2021/01/28 12:50:12;;;;;;;1.98;1.40;;;;;;;;;;4984373;28;20357;-66
2021/01/28 12:52:38;;;;;;;3.20;1.27;;;;;;;;;;5012562;28;20614;-65
2021/01/28 12:55:08;;;;;;;2.20;1.30;;;;;;;;;;4997252;28;20381;-69
2021/01/28 12:57:34;;;;;;;2.38;1.08;;;;;;;;;;5013801;28;20772;-65
2021/01/28 13:00:05;;;;;;;1.67;1.20;;;;;;;;;;5013081;28;20067;-66
2021/01/28 13:02:31;;;;;;;4.85;2.22;;;;;;;;;;5015403;28;20152;-68
2021/01/28 13:04:59;;;;;;;1.80;1.45;;;;;;;;;;5014917;28;20040;-68
2021/01/28 13:07:27;;;;;;;2.65;1.35;;;;;;;;;;5011076;28;20033;-66
2021/01/28 13:09:52;;;;;;;3.63;1.52;;;;;;;;;;4994403;28;20071;-67
2021/01/28 13:12:20;;;;;;;1.67;1.40;;;;;;;;;;4995728;28;20143;-66
2021/01/28 13:14:46;;;;;;;3.00;1.40;;;;;;;;;;5014686;28;20018;-66
2021/01/28 13:17:12;;;;;;;7.70;1.58;;;;;;;;;;5027803;28;20521;-66
2021/01/28 13:19:38;;;;;;;2.15;1.20;;;;;;;;;;5028351;28;20086;-65
2021/01/28 13:22:08;;;;;;;2.60;1.35;;;;;;;;;;5012698;28;20029;-65
2021/01/28 13:24:34;;;;;;;1.63;1.10;;;;;;;;;;5008926;28;20029;-69
2021/01/28 13:27:02;;;;;;;2.60;1.25;;;;;;;;;;5014722;28;20033;-66
2021/01/28 13:29:28;;;;;;;8.60;1.42;;;;;;;;;;4998977;28;20120;-68
2021/01/28 13:31:54;;;;;;;2.05;0.90;;;;;;;;;;5015195;28;20025;-66
2021/01/28 13:34:22;;;;;;;2.67;1.50;;;;;;;;;;5017767;28;20552;-67
2021/01/28 13:36:48;;;;;;;2.03;1.20;;;;;;;;;;5016005;28;20017;-65
2021/01/28 13:39:16;;;;;;;1.85;1.05;;;;;;;;;;5029085;28;20936;-65
2021/01/28 13:41:47;;;;;;;4.05;1.30;;;;;;;;;;5015145;28;20096;-66
2021/01/28 13:44:15;;;;;;;7.28;1.50;;;;;;;;;;4996134;28;20040;-67
2021/01/28 13:46:40;;;;;;;2.53;1.20;;;;;;;;;;5013788;28;20037;-67
2021/01/28 13:49:09;;;;;;;2.65;1.65;;;;;;;;;;5005932;28;20065;-66
2021/01/28 13:51:37;;;;;;;3.70;1.60;;;;;;;;;;5010722;28;20095;-65
2021/01/28 13:54:05;;;;;;;2.08;1.02;;;;;;;;;;4996727;28;20172;-65
2021/01/28 13:56:30;;;;;;;2.15;1.20;;;;;;;;;;5012251;28;20507;-67
2021/01/28 13:58:58;;;;;;;2.90;1.63;;;;;;;;;;5030037;28;20040;-66
2021/01/28 14:01:26;;;;;;;2.15;1.30;;;;;;;;;;5029729;28;20163;-66
2021/01/28 14:03:55;;;;;;;1.88;1.30;;;;;;;;;;5003465;28;20492;-69
2021/01/28 14:06:24;;;;;;;2.75;1.45;;;;;;;;;;4994945;28;20033;-68
2021/01/28 14:08:50;;;;;;;3.53;1.48;;;;;;;;;;5009774;28;20147;-68
2021/01/28 14:11:16;;;;;;;4.00;1.70;;;;;;;;;;5025132;28;20043;-67
2021/01/28 14:13:44;;;;;;;3.30;1.50;;;;;;;;;;5009939;28;20030;-68
2021/01/28 14:16:11;;;;;;;5.28;2.33;;;;;;;;;;5014775;28;20656;-65
2021/01/28 14:18:42;;;;;;;2.15;1.55;;;;;;;;;;5013985;28;20133;-67
2021/01/28 14:21:11;;;;;;;4.85;1.75;;;;;;;;;;4984479;28;20041;-67
2021/01/28 14:23:36;;;;;;;4.53;2.28;;;;;;;;;;4997884;28;21637;-68
2021/01/28 14:26:04;;;;;;;2.67;1.75;;;;;;;;;;4993869;28;20154;-68
2021/01/28 14:28:32;;;;;;;6.22;2.60;;;;;;;;;;5013384;28;20029;-66
2021/01/28 14:30:57;;;;;;;5.13;2.17;;;;;;;;;;5013357;28;21023;-66
2021/01/28 14:33:25;;;;;;;5.05;2.15;;;;;;;;;;5011535;28;20076;-66
2021/01/28 14:35:53;;;;;;;5.70;2.42;;;;;;;;;;4988630;28;20460;-67
2021/01/28 14:38:21;;;;;;;3.30;1.70;;;;;;;;;;4993014;28;20064;-67
2021/01/28 14:40:48;;;;;;;1.85;1.45;;;;;;;;;;5009719;28;20145;-68
2021/01/28 14:43:16;;;;;;;2.53;1.52;;;;;;;;;;5011733;28;20064;-67
2021/01/28 14:45:42;;;;;;;5.38;2.15;;;;;;;;;;4978688;28;20118;-68
2021/01/28 14:48:07;;;;;;;3.95;2.20;;;;;;;;;;5027575;28;20049;-66
2021/01/28 14:50:35;;;;;;;2.95;1.90;;;;;;;;;;5027760;28;20084;-67
2021/01/28 14:53:01;;;;;;;3.13;1.95;;;;;;;;;;5013636;28;20218;-68
2021/01/28 14:55:31;;;;;;;2.53;1.73;;;;;;;;;;5027080;28;20477;-66
2021/01/28 14:57:56;;;;;;;2.90;1.80;;;;;;;;;;5025498;28;21782;-69